FW4191 Weather Reports


Display with metric or nautical units.
time (UTC)temp
F
wind
direction
speed
MPH
gust
MPH
rain 1hr
in
rain 24hr
in
rain mn
in
humidity
%
barometer
mb
20210301231941 39 312 4.0 7.0 0.00 0.21 0.02 55 1025.3
20210301230950 40 318 4.0 6.0 0.00 0.21 0.02 55 1025.1
20210301225945 40 322 2.0 4.0 0.00 0.21 0.02 53 1025.2
20210301225036 41 311 5.0 7.0 0.00 0.21 0.02 51 1025.2
20210301223959 41 311 6.0 11.0 0.00 0.21 0.02 50 1025.2
20210301223842 41 302 4.0 6.0 0.00 0.21 0.02 50 1025.2
20210301223056 42 308 4.0 7.0 0.00 0.21 0.02 48 1025.0
20210301221826 43 312 4.0 7.0 0.00 0.21 0.02 47 1024.7
20210301221741 43 306 4.0 7.0 0.00 0.21 0.02 48 1024.9
20210301220740 43 300 5.0 9.0 0.00 0.21 0.02 48 1024.7
20210301220624 43 301 4.0 7.0 0.00 0.21 0.02 48 1024.6
20210301215625 43 299 5.0 8.0 0.00 0.21 0.02 47 1024.2
20210301214642 43 300 5.0 6.0 0.00 0.21 0.02 48 1024.4
20210301213759 44 316 6.0 7.0 0.00 0.21 0.02 48 1024.7
20210301213209 44 301 3.0 6.0 0.00 0.21 0.02 50 1024.5
20210301211823 44 307 6.0 8.0 0.00 0.21 0.02 50 1024.8
20210301210830 43 318 4.0 6.0 0.00 0.21 0.02 51 1024.6
20210301205858 43 318 4.0 6.0 0.00 0.21 0.02 50 1024.7
20210301205139 43 296 4.0 7.0 0.00 0.21 0.02 48 1024.5
20210301204913 43 298 6.0 11.0 0.00 0.21 0.02 49 1024.5
20210301204701 43 298 6.0 11.0 0.00 0.21 0.02 48 1024.5
20210301203647 44 296 3.0 6.0 0.00 0.21 0.02 49 1024.3
20210301203533 44 300 5.0 8.0 0.00 0.21 0.02 49 1024.2
20210301203459 44 291 6.0 8.0 0.00 0.21 0.02 50 1024.1
20210301203451 44 299 5.0 7.0 0.00 0.21 0.02 50 1024.0
20210301203442 44 307 6.0 8.0 0.00 0.21 0.02 50 1024.1
20210301203428 44 295 3.0 7.0 0.00 0.21 0.02 50 1024.1
20210301203355 44 315 4.0 6.0 0.00 0.21 0.02 50 1024.1
20210301203330 44 308 5.0 7.0 0.00 0.21 0.02 50 1023.9
20210301201927 44 302 5.0 7.0 0.00 0.21 0.02 49 1023.9
20210301201842 44 308 5.0 6.0 0.00 0.21 0.02 50 1023.8
20210301200943 44 302 4.0 7.0 0.00 0.21 0.02 50 1023.8
20210301200038 44 311 6.0 10.0 0.00 0.21 0.02 51 1023.6
20210301195948 44 310 7.0 10.0 0.00 0.21 0.02 51 1023.6
20210301195201 44 295 3.0 5.0 0.00 0.21 0.02 54 1023.3
20210301195128 44 298 4.0 6.0 0.00 0.21 0.02 53 1023.2
20210301194952 44 294 3.0 6.0 0.00 0.21 0.02 54 1023.3
20210301194642 44 316 4.0 8.0 0.00 0.21 0.02 54 1023.4
20210301193730 44 299 4.0 6.0 0.00 0.21 0.02 55 1023.5
20210301193648 44 293 6.0 8.0 0.00 0.21 0.02 55 1023.4
20210301193604 44 294 6.0 9.0 0.00 0.21 0.02 55 1023.4
20210301193454 44 310 5.0 7.0 0.00 0.21 0.02 54 1023.3
20210301192613 44 309 5.0 6.0 0.00 0.21 0.02 54 1023.6
20210301192524 44 306 5.0 8.0 0.00 0.21 0.02 54 1023.6
20210301191425 44 310 5.0 8.0 0.00 0.21 0.02 55 1023.4
20210301190424 43 289 2.0 4.0 0.00 0.21 0.02 55 1023.1
20210301185442 44 299 4.0 7.0 0.00 0.21 0.02 57 1023.6
20210301185324 44 295 4.0 8.0 0.00 0.21 0.02 57 1023.6
20210301184347 43 290 3.0 6.0 0.00 0.21 0.02 58 1023.1
20210301184226 43 305 2.0 3.0 0.00 0.21 0.02 57 1023.1
20210301184141 43 293 4.0 6.0 0.00 0.21 0.02 58 1023.0
20210301184041 43 291 4.0 6.0 0.00 0.21 0.02 58 1023.0
20210301183541 43 297 3.0 6.0 0.00 0.21 0.02 60 1022.9
20210301183449 43 295 2.0 5.0 0.00 0.21 0.02 60 1023.0
20210301182033 43 294 3.0 6.0 0.00 0.21 0.02 60 1023.3
20210301181042 43 293 3.0 6.0 0.00 0.21 0.02 62 1023.5
20210301180035 43 295 4.0 6.0 0.00 0.21 0.02 62 1023.2
20210301175151 43 294 4.0 6.0 0.00 0.21 0.02 63 1023.3
20210301174126 43 294 3.0 5.0 0.00 0.22 0.02 66 1022.8
20210301173323 42 291 4.0 7.0 0.00 0.22 0.02 69 1022.5
20210301172124 41 291 4.0 6.0 0.00 0.22 0.02 67 1022.5
20210301171140 40 291 4.0 6.0 0.00 0.22 0.02 68 1021.9
20210301171041 40 288 4.0 8.0 0.00 0.22 0.02 69 1021.9
20210301170038 40 312 6.0 8.0 0.00 0.22 0.02 70 1022.2
20210301165924 40 316 5.0 9.0 0.00 0.22 0.02 71 1022.2
20210301165843 40 317 3.0 4.0 0.00 0.22 0.02 71 1022.1
20210301164924 39 287 6.0 10.0 0.00 0.22 0.02 72 1022.0
20210301163824 39 311 5.0 7.0 0.00 0.23 0.02 74 1022.0
20210301163741 39 314 4.0 6.0 0.00 0.23 0.02 74 1021.9
20210301163625 39 317 3.0 5.0 0.00 0.23 0.02 75 1021.8
20210301162840 39 305 3.0 5.0 0.00 0.23 0.02 76 1021.7
20210301161724 39 298 3.0 7.0 0.00 0.23 0.02 77 1021.9
20210301161642 39 295 4.0 6.0 0.00 0.24 0.02 78 1021.7
20210301160726 38 300 3.0 5.0 0.00 0.24 0.02 79 1021.9
20210301160623 38 311 3.0 5.0 0.00 0.24 0.02 80 1021.8
20210301160548 38 294 3.0 6.0 0.00 0.24 0.02 80 1021.7
20210301155526 38 312 3.0 5.0 0.00 0.25 0.02 82 1021.8
20210301154547 37 291 4.0 6.0 0.00 0.27 0.02 84 1021.7
20210301153624 36 292 2.0 2.0 0.00 0.28 0.02 84 1021.9
20210301153600 36 292 1.0 3.0 0.00 0.28 0.02 84 1021.8
20210301153525 36 292 2.0 4.0 0.00 0.28 0.02 84 1021.7
20210301152824 36 288 1.0 3.0 0.00 0.28 0.02 83 1021.9
20210301152458 36 292 1.0 3.0 0.00 0.30 0.02 84 1021.9
20210301151426 36 308 2.0 3.0 0.00 0.31 0.02 84 1021.8
20210301150441 36 292 2.0 4.0 0.00 0.31 0.02 84 1021.5
20210301145524 36 314 2.0 4.0 0.01 0.33 0.02 84 1020.9
20210301144542 36 268 1.0 4.0 0.01 0.36 0.02 85 1021.3
20210301143645 36 300 2.0 3.0 0.01 0.41 0.02 84 1020.9
20210301142807 36 304 2.0 4.0 0.01 0.46 0.02 84 1020.9
20210301142743 36 305 2.0 4.0 0.01 0.47 0.02 84 1020.9
20210301142604 36 315 2.0 4.0 0.01 0.47 0.02 84 1020.9
20210301142450 36 300 3.0 5.0 0.01 0.48 0.02 83 1020.8
20210301141329 36 305 2.0 4.0 0.01 0.49 0.02 85 1020.7
20210301141244 36 316 4.0 6.0 0.01 0.50 0.02 84 1020.8
20210301140324 36 303 3.0 6.0 0.01 0.52 0.02 86 1021.0
20210301135435 37 301 4.0 6.0 0.00 0.54 0.01 87 1020.5
20210301135424 37 296 2.0 6.0 0.00 0.55 0.01 87 1020.5
20210301135402 37 294 2.0 3.0 0.00 0.56 0.01 86 1020.4
20210301134454 36 301 3.0 5.0 0.00 0.57 0.01 87 1020.4
20210301134430 36 309 2.0 4.0 0.00 0.57 0.01 87 1020.5
20210301134421 36 300 2.0 3.0 0.00 0.59 0.01 87 1020.4
20210301133240 36 315 1.0 2.0 0.00 0.61 0.01 85 1020.1
20210301132239 36 313 2.0 4.0 0.00 0.64 0.01 86 1020.2
20210301131233 36 296 2.0 4.0 0.00 0.67 0.01 86 1019.9
20210301131123 36 315 2.0 3.0 0.00 0.68 0.01 86 1019.7
20210301130127 36 310 2.0 3.0 0.00 0.73 0.01 85 1019.6
20210301130040 36 324 3.0 5.0 0.00 0.74 0.01 86 1019.6
20210301125926 36 308 4.0 6.0 0.00 0.74 0.01 85 1019.5
20210301125135 36 312 4.0 5.0 0.00 0.77 0.01 86 1019.2
20210301124041 36 299 2.0 4.0 0.00 0.77 0.01 86 1019.2
20210301123042 36 315 2.0 3.0 0.00 0.78 0.01 86 1019.0
20210301122123 36 315 2.0 4.0 0.00 0.78 0.01 86 1018.4
20210301121229 36 315 2.0 3.0 0.00 0.78 0.01 86 1018.3
20210301121142 37 312 3.0 5.0 0.00 0.78 0.01 85 1018.4
20210301121053 37 302 2.0 4.0 0.00 0.78 0.01 86 1018.4
20210301120035 37 292 3.0 5.0 0.00 0.78 0.01 87 1018.3
20210301115929 37 295 4.0 7.0 0.00 0.78 0.01 87 1018.3
20210301114924 37 315 2.0 2.0 0.00 0.78 0.01 86 1018.0
20210301113948 37 315 3.0 4.0 0.00 0.79 0.01 86 1018.2
20210301113129 37 308 4.0 5.0 0.00 0.79 0.01 85 1018.0
20210301113046 37 305 5.0 7.0 0.00 0.80 0.01 85 1018.0
20210301111924 38 303 3.0 5.0 0.00 0.80 0.01 86 1017.9
20210301111834 38 319 3.0 4.0 0.00 0.80 0.01 86 1017.8
20210301111740 38 295 2.0 4.0 0.00 0.80 0.01 86 1017.8
20210301110743 38 309 4.0 5.0 0.00 0.81 0.01 87 1017.7
20210301105826 38 292 2.0 3.0 0.00 0.82 0.01 87 1017.6
20210301104851 38 302 2.0 3.0 0.00 0.83 0.01 88 1017.4
20210301104741 38 321 1.0 2.0 0.00 0.83 0.01 87 1017.4
20210301103744 38 315 2.0 3.0 0.00 0.86 0.01 88 1017.2
20210301102827 38 315 2.0 4.0 0.00 0.87 0.01 88 1017.2
20210301101826 38 315 1.0 2.0 0.00 0.88 0.01 88 1016.7
20210301101725 38 315 2.0 3.0 0.00 0.88 0.01 88 1016.7
20210301100725 38 304 3.0 4.0 0.00 0.89 0.01 88 1016.6
20210301100643 38 316 3.0 5.0 0.00 0.89 0.01 87 1016.5
20210301100541 38 315 2.0 4.0 0.00 0.89 0.01 87 1016.5
20210301100431 38 315 1.0 3.0 0.00 0.89 0.01 88 1016.4
20210301095446 38 302 4.0 5.0 0.00 0.90 0.01 88 1016.1
20210301095329 38 295 3.0 5.0 0.00 0.90 0.01 87 1016.0
20210301094339 39 315 1.0 3.0 0.00 0.91 0.01 87 1015.8
20210301093425 39 315 3.0 4.0 0.00 0.93 0.01 88 1015.8
20210301092533 39 315 3.0 4.0 0.00 0.94 0.01 87 1015.7
20210301091440 39 315 3.0 4.0 0.00 0.96 0.01 89 1015.8
20210301091325 39 311 3.0 4.0 0.00 0.96 0.01 89 1015.8
20210301090341 39 303 4.0 7.0 0.00 0.97 0.01 89 1015.9
20210301085423 39 310 4.0 9.0 0.00 0.98 0.01 89 1015.8
20210301085340 39 306 4.0 6.0 0.00 0.98 0.01 89 1015.9
20210301084327 39 292 2.0 3.0 0.00 0.98 0.01 89 1015.5
20210301084223 39 298 2.0 4.0 0.00 0.99 0.01 90 1015.5
20210301084128 39 294 2.0 3.0 0.00 0.99 0.01 89 1015.6
20210301084040 39 292 1.0 3.0 0.00 0.99 0.01 90 1015.5
20210301083125 40 340 4.0 7.0 0.00 0.99 0.01 89 1015.1
20210301082141 40 315 3.0 4.0 0.00 0.99 0.01 88 1015.1
20210301081139 40 322 3.0 5.0 0.00 1.00 0.01 88 1015.2
20210301080223 41 320 3.0 5.0 0.00 1.01 0.01 89 1015.1
20210301075225 41 307 5.0 7.0 0.00 1.05 0.01 88 1015.0
20210301074229 42 314 3.0 6.0 0.00 1.07 0.01 90 1015.3
20210301074126 42 307 4.0 6.0 0.00 1.07 0.01 90 1015.3
20210301073125 43 322 3.0 6.0 0.00 1.10 0.01 89 1014.7
20210301073026 43 321 3.0 7.0 0.00 1.10 0.01 90 1014.6
20210301072028 44 314 3.0 7.0 0.00 1.13 0.01 89 1014.4
20210301071031 45 301 5.0 7.0 0.00 1.14 0.01 89 1014.4
20210301070040 45 305 4.0 7.0 0.00 1.14 0.01 90 1014.1
20210301065922 45 308 2.0 5.0 0.00 1.14 0.01 91 1014.2
20210301065823 45 307 3.0 6.0 0.00 1.14 0.01 90 1014.1
20210301064835 46 312 4.0 7.0 0.00 1.14 0.01 91 1013.9
20210301063840 46 310 3.0 6.0 0.01 1.14 0.01 91 1013.9
20210301062929 47 314 3.0 4.0 0.01 1.14 0.01 92 1013.3
20210301061824 47 288 2.0 4.0 0.01 1.14 0.01 93 1012.6
20210301061724 47 290 1.0 4.0 0.01 1.14 0.01 92 1012.7
20210301060742 47 255 2.0 3.0 0.01 1.14 0.01 91 1012.0
20210301055731 48 292 0.0 0.0 0.01 1.14 0.01 89 1011.9
20210301055641 48 292 0.0 0.0 0.01 1.14 0.01 89 1012.0
20210301054623 48 292 1.0 2.0 0.01 1.14 0.01 87 1012.7
20210301053639 48 314 2.0 4.0 0.00 1.13 0.00 89 1013.0
20210301053525 48 336 2.0 3.0 0.00 1.13 0.00 90 1012.9
20210301052704 48 260 1.0 4.0 0.00 1.13 0.00 90 1012.9
20210301051541 48 247 0.0 0.0 0.00 1.13 0.00 91 1012.6
20210301050628 48 284 0.0 0.0 0.01 1.13 0.00 90 1012.1
20210301050542 48 292 0.0 0.0 0.01 1.13 0.00 89 1012.0
20210301045543 48 292 2.0 3.0 0.02 1.13 1.13 90 1012.2
20210301044628 49 225 1.0 2.0 0.03 1.13 1.13 88 1011.8
20210301043631 50 294 3.0 5.0 0.03 1.13 1.13 91 1011.9
20210301042732 55 294 4.0 7.0 0.04 1.13 1.13 96 1011.7
20210301041642 56 204 1.0 3.0 0.09 1.13 1.13 98 1011.3
20210301040627 56 202 0.0 0.0 0.10 1.12 1.12 98 1011.1
20210301040547 56 202 0.0 0.0 0.10 1.12 1.12 97 1011.2
20210301040445 56 202 0.0 0.0 0.10 1.12 1.12 98 1011.4
20210301035542 57 202 0.0 0.0 0.10 1.11 1.10 98 1011.8
20210301035427 57 202 0.0 0.0 0.10 1.10 1.10 97 1011.7
20210301035418 57 202 0.0 0.0 0.10 1.10 1.10 98 1011.6
20210301035408 57 202 0.0 0.0 0.10 1.10 1.10 97 1011.4
20210301034242 57 256 1.0 2.0 0.12 1.10 1.10 97 1011.5
20210301034129 57 203 2.0 4.0 0.12 1.10 1.10 97 1011.5
20210301034044 57 208 2.0 5.0 0.12 1.10 1.10 98 1011.4
20210301033126 57 180 0.0 0.0 0.12 1.09 1.09 98 1011.5
20210301033028 57 182 1.0 3.0 0.12 1.09 1.09 97 1011.6
20210301032950 57 101 1.0 2.0 0.12 1.09 1.09 97 1011.8
20210301032851 57 311 0.0 2.0 0.12 1.09 1.09 98 1011.9
20210301031826 57 286 2.0 5.0 0.09 1.06 1.05 98 1012.4
20210301031737 57 273 2.0 4.0 0.08 1.05 1.04 97 1012.3
20210301030755 57 235 0.0 5.0 0.06 1.03 1.02 97 1012.4
20210301030644 57 208 1.0 5.0 0.05 1.02 1.02 98 1012.3
20210301030536 57 220 2.0 4.0 0.05 1.02 1.02 97 1012.2
20210301025527 57 225 1.0 2.0 0.04 1.01 1.00 98 1012.2
20210301024528 57 262 1.0 2.0 0.02 0.99 0.98 96 1012.0
20210301023644 57 225 0.0 1.0 0.01 0.98 0.98 97 1012.1
20210301022835 57 291 0.0 1.0 0.01 0.97 0.97 96 1012.1
20210301021627 57 224 1.0 2.0 0.01 0.97 0.97 97 1011.8
20210301020726 57 223 0.0 4.0 0.01 0.97 0.97 97 1011.7
20210301015744 57 221 0.0 2.0 0.02 0.97 0.97 96 1011.8
20210301014830 57 202 0.0 0.0 0.03 0.97 0.97 95 1011.5
20210301014726 57 202 0.0 0.0 0.03 0.97 0.97 95 1011.4
20210301013742 57 243 1.0 2.0 0.03 0.97 0.97 96 1011.5
20210301012939 57 244 1.0 2.0 0.02 0.96 0.96 95 1011.6
20210301011829 57 202 0.0 0.0 0.02 0.96 0.96 95 1011.2
20210301011744 57 202 0.0 0.0 0.02 0.96 0.96 95 1011.4
20210301011643 57 202 0.0 0.0 0.02 0.96 0.96 95 1011.5
20210301010644 57 202 1.0 2.0 0.02 0.96 0.96 95 1011.8
20210301010613 57 305 0.0 1.0 0.02 0.96 0.96 95 1011.8
20210301010454 57 329 0.0 0.0 0.02 0.96 0.96 94 1011.8
20210301005448 58 225 0.0 0.0 0.01 0.95 0.95 93 1011.8
20210301005441 58 229 0.0 2.0 0.01 0.95 0.95 94 1011.8
20210301004334 58 202 1.0 2.0 0.00 0.94 0.94 94 1011.6
20210301004235 58 202 1.0 3.0 0.00 0.94 0.94 93 1011.4
20210301004130 58 202 0.0 0.0 0.00 0.94 0.94 93 1011.4
20210301004036 58 202 0.0 0.0 0.00 0.94 0.94 93 1011.3
20210301003942 58 202 0.0 0.0 0.00 0.94 0.94 93 1011.3
20210301003827 58 202 0.0 0.0 0.00 0.94 0.94 93 1011.4
20210301003745 58 202 0.0 0.0 0.00 0.94 0.94 93 1011.5
20210301002929 58 202 0.0 0.0 0.00 0.94 0.94 92 1011.6
20210301001847 59 67 0.0 0.0 0.00 0.94 0.94 93 1011.6
20210301001731 59 323 0.0 0.0 0.00 0.94 0.94 93 1011.6
20210301000728 59 207 0.0 1.0 0.00 0.94 0.94 92 1011.3
20210228235752 59 292 1.0 2.0 0.00 0.94 0.94 93 1011.8
20210228234834 59 287 2.0 3.0 0.00 0.94 0.94 93 1011.7
20210228234728 59 239 0.0 1.0 0.00 0.94 0.94 92 1011.7
20210228233829 59 213 2.0 4.0 0.00 0.94 0.94 93 1011.3
20210228232924 59 211 1.0 3.0 0.00 0.94 0.94 94 1010.8